sensor_id;sensor_type;location;lat;lon;timestamp;temperature;humidity
70851;DHT22;58475;49.662;9.636;2022-07-29T00:00:56;19.01;62.37
70851;DHT22;58475;49.662;9.636;2022-07-29T00:03:21;18.78;63.81
70851;DHT22;58475;49.662;9.636;2022-07-29T00:05:47;18.72;64.28
70851;DHT22;58475;49.662;9.636;2022-07-29T00:08:12;18.83;63.71
70851;DHT22;58475;49.662;9.636;2022-07-29T00:10:38;18.60;62.99
70851;DHT22;58475;49.662;9.636;2022-07-29T00:13:03;18.69;63.02
70851;DHT22;58475;49.662;9.636;2022-07-29T00:15:29;18.69;63.66
70851;DHT22;58475;49.662;9.636;2022-07-29T00:17:54;18.71;63.53
70851;DHT22;58475;49.662;9.636;2022-07-29T00:20:20;18.71;64.22
70851;DHT22;58475;49.662;9.636;2022-07-29T00:22:45;18.72;64.63
70851;DHT22;58475;49.662;9.636;2022-07-29T00:25:12;18.74;63.55
70851;DHT22;58475;49.662;9.636;2022-07-29T00:27:37;18.69;64.21
70851;DHT22;58475;49.662;9.636;2022-07-29T00:30:04;18.60;64.10
70851;DHT22;58475;49.662;9.636;2022-07-29T00:32:29;18.51;63.11
70851;DHT22;58475;49.662;9.636;2022-07-29T00:34:55;18.57;62.99
70851;DHT22;58475;49.662;9.636;2022-07-29T00:37:39;18.51;63.26
70851;DHT22;58475;49.662;9.636;2022-07-29T00:40:05;18.65;63.34
70851;DHT22;58475;49.662;9.636;2022-07-29T00:42:31;18.36;63.76
70851;DHT22;58475;49.662;9.636;2022-07-29T00:44:56;18.64;61.67
70851;DHT22;58475;49.662;9.636;2022-07-29T00:47:21;18.51;62.88
70851;DHT22;58475;49.662;9.636;2022-07-29T00:49:47;18.63;62.65
70851;DHT22;58475;49.662;9.636;2022-07-29T00:52:13;18.67;62.33
70851;DHT22;58475;49.662;9.636;2022-07-29T00:54:39;18.78;61.38
70851;DHT22;58475;49.662;9.636;2022-07-29T00:57:07;18.64;60.37
70851;DHT22;58475;49.662;9.636;2022-07-29T00:59:33;18.78;61.40
70851;DHT22;58475;49.662;9.636;2022-07-29T01:01:58;18.71;60.22
70851;DHT22;58475;49.662;9.636;2022-07-29T01:04:24;18.68;61.88
70851;DHT22;58475;49.662;9.636;2022-07-29T01:06:50;18.74;61.93
70851;DHT22;58475;49.662;9.636;2022-07-29T01:09:17;18.65;62.93
70851;DHT22;58475;49.662;9.636;2022-07-29T01:11:45;18.53;63.65
70851;DHT22;58475;49.662;9.636;2022-07-29T01:14:11;18.40;63.64
70851;DHT22;58475;49.662;9.636;2022-07-29T01:16:43;18.32;64.37
70851;DHT22;58475;49.662;9.636;2022-07-29T01:19:47;18.34;63.87
70851;DHT22;58475;49.662;9.636;2022-07-29T01:31:03;18.29;64.72
70851;DHT22;58475;49.662;9.636;2022-07-29T01:33:30;18.22;65.60
70851;DHT22;58475;49.662;9.636;2022-07-29T01:36:18;18.23;65.69
70851;DHT22;58475;49.662;9.636;2022-07-29T01:38:58;18.06;65.35
70851;DHT22;58475;49.662;9.636;2022-07-29T01:41:26;17.87;65.17
70851;DHT22;58475;49.662;9.636;2022-07-29T01:43:59;17.99;64.30
70851;DHT22;58475;49.662;9.636;2022-07-29T01:46:31;17.79;65.31
70851;DHT22;58475;49.662;9.636;2022-07-29T01:49:04;17.68;68.29
70851;DHT22;58475;49.662;9.636;2022-07-29T01:51:38;17.56;68.28
70851;DHT22;58475;49.662;9.636;2022-07-29T01:54:08;17.44;68.78
70851;DHT22;58475;49.662;9.636;2022-07-29T01:56:37;17.52;68.85
70851;DHT22;58475;49.662;9.636;2022-07-29T01:59:04;17.58;68.89
70851;DHT22;58475;49.662;9.636;2022-07-29T02:01:32;17.39;69.20
70851;DHT22;58475;49.662;9.636;2022-07-29T02:03:59;17.39;69.16
70851;DHT22;58475;49.662;9.636;2022-07-29T02:06:27;17.58;69.11
70851;DHT22;58475;49.662;9.636;2022-07-29T02:08:56;17.38;68.97
70851;DHT22;58475;49.662;9.636;2022-07-29T02:11:23;17.23;69.72
70851;DHT22;58475;49.662;9.636;2022-07-29T02:13:52;17.31;69.05
70851;DHT22;58475;49.662;9.636;2022-07-29T02:16:21;17.31;67.95
70851;DHT22;58475;49.662;9.636;2022-07-29T02:18:50;17.28;69.11
70851;DHT22;58475;49.662;9.636;2022-07-29T02:21:22;17.42;70.31
70851;DHT22;58475;49.662;9.636;2022-07-29T02:23:49;17.41;70.19
70851;DHT22;58475;49.662;9.636;2022-07-29T02:26:17;17.32;70.37
70851;DHT22;58475;49.662;9.636;2022-07-29T02:28:43;17.37;70.76
70851;DHT22;58475;49.662;9.636;2022-07-29T02:31:10;17.32;70.35
70851;DHT22;58475;49.662;9.636;2022-07-29T02:33:37;17.18;70.43
70851;DHT22;58475;49.662;9.636;2022-07-29T02:36:04;17.21;69.74
70851;DHT22;58475;49.662;9.636;2022-07-29T02:38:30;17.28;70.10
70851;DHT22;58475;49.662;9.636;2022-07-29T02:41:18;17.18;70.83
70851;DHT22;58475;49.662;9.636;2022-07-29T02:43:46;17.20;71.39
70851;DHT22;58475;49.662;9.636;2022-07-29T02:46:14;17.17;71.00
70851;DHT22;58475;49.662;9.636;2022-07-29T02:48:51;17.30;70.45
70851;DHT22;58475;49.662;9.636;2022-07-29T02:51:28;17.23;69.93
70851;DHT22;58475;49.662;9.636;2022-07-29T02:53:56;17.17;70.73
70851;DHT22;58475;49.662;9.636;2022-07-29T02:56:25;17.02;71.84
70851;DHT22;58475;49.662;9.636;2022-07-29T02:58:58;17.14;71.31
70851;DHT22;58475;49.662;9.636;2022-07-29T03:01:25;17.17;69.76
70851;DHT22;58475;49.662;9.636;2022-07-29T03:03:54;16.97;69.39
70851;DHT22;58475;49.662;9.636;2022-07-29T03:06:22;16.96;70.09
70851;DHT22;58475;49.662;9.636;2022-07-29T03:08:49;16.99;71.09
70851;DHT22;58475;49.662;9.636;2022-07-29T03:11:16;16.83;71.14
70851;DHT22;58475;49.662;9.636;2022-07-29T03:13:42;16.76;72.38
70851;DHT22;58475;49.662;9.636;2022-07-29T03:16:09;16.88;71.63
70851;DHT22;58475;49.662;9.636;2022-07-29T03:18:35;16.73;70.96
70851;DHT22;58475;49.662;9.636;2022-07-29T03:21:02;16.70;70.86
70851;DHT22;58475;49.662;9.636;2022-07-29T03:23:28;16.75;69.98
70851;DHT22;58475;49.662;9.636;2022-07-29T03:25:54;16.66;69.83
70851;DHT22;58475;49.662;9.636;2022-07-29T03:28:20;16.59;70.68
70851;DHT22;58475;49.662;9.636;2022-07-29T03:30:46;16.56;72.78
70851;DHT22;58475;49.662;9.636;2022-07-29T03:33:11;16.41;72.68
70851;DHT22;58475;49.662;9.636;2022-07-29T03:35:37;16.48;72.87
70851;DHT22;58475;49.662;9.636;2022-07-29T03:38:02;16.29;72.88
70851;DHT22;58475;49.662;9.636;2022-07-29T03:40:49;16.29;73.38
70851;DHT22;58475;49.662;9.636;2022-07-29T03:43:17;16.14;73.36
70851;DHT22;58475;49.662;9.636;2022-07-29T03:45:47;16.12;73.60
70851;DHT22;58475;49.662;9.636;2022-07-29T03:48:14;16.15;72.63
70851;DHT22;58475;49.662;9.636;2022-07-29T03:50:41;16.29;72.47
70851;DHT22;58475;49.662;9.636;2022-07-29T03:53:07;16.41;70.96
70851;DHT22;58475;49.662;9.636;2022-07-29T03:55:41;16.28;71.19
70851;DHT22;58475;49.662;9.636;2022-07-29T03:58:07;16.33;71.11
70851;DHT22;58475;49.662;9.636;2022-07-29T04:00:34;16.28;71.75
70851;DHT22;58475;49.662;9.636;2022-07-29T04:03:01;16.28;71.88
70851;DHT22;58475;49.662;9.636;2022-07-29T04:05:26;16.30;72.50
70851;DHT22;58475;49.662;9.636;2022-07-29T04:07:52;16.18;74.07
70851;DHT22;58475;49.662;9.636;2022-07-29T04:10:18;16.08;74.32
70851;DHT22;58475;49.662;9.636;2022-07-29T04:12:44;16.24;74.66
70851;DHT22;58475;49.662;9.636;2022-07-29T04:15:10;16.25;72.96
70851;DHT22;58475;49.662;9.636;2022-07-29T04:17:36;16.25;73.84
70851;DHT22;58475;49.662;9.636;2022-07-29T04:20:01;16.14;74.89
70851;DHT22;58475;49.662;9.636;2022-07-29T04:22:27;15.97;75.03
70851;DHT22;58475;49.662;9.636;2022-07-29T04:24:52;16.01;74.76
70851;DHT22;58475;49.662;9.636;2022-07-29T04:27:18;15.88;74.76
70851;DHT22;58475;49.662;9.636;2022-07-29T04:29:43;15.86;75.13
70851;DHT22;58475;49.662;9.636;2022-07-29T04:32:08;15.90;75.09
70851;DHT22;58475;49.662;9.636;2022-07-29T04:34:34;15.88;75.55
70851;DHT22;58475;49.662;9.636;2022-07-29T04:37:00;15.97;75.90
70851;DHT22;58475;49.662;9.636;2022-07-29T04:39:25;16.14;75.26
70851;DHT22;58475;49.662;9.636;2022-07-29T04:41:51;16.29;74.33
70851;DHT22;58475;49.662;9.636;2022-07-29T04:44:16;16.26;74.15
70851;DHT22;58475;49.662;9.636;2022-07-29T04:46:42;16.56;72.10
70851;DHT22;58475;49.662;9.636;2022-07-29T04:49:08;16.63;70.92
70851;DHT22;58475;49.662;9.636;2022-07-29T04:51:34;16.62;70.72
70851;DHT22;58475;49.662;9.636;2022-07-29T04:53:59;16.56;71.62
70851;DHT22;58475;49.662;9.636;2022-07-29T04:56:25;16.52;69.80
70851;DHT22;58475;49.662;9.636;2022-07-29T04:58:50;16.69;68.91
70851;DHT22;58475;49.662;9.636;2022-07-29T05:01:15;16.75;68.37
70851;DHT22;58475;49.662;9.636;2022-07-29T05:03:41;16.83;66.75
70851;DHT22;58475;49.662;9.636;2022-07-29T05:06:06;16.91;66.54
70851;DHT22;58475;49.662;9.636;2022-07-29T05:08:32;17.11;68.00
70851;DHT22;58475;49.662;9.636;2022-07-29T05:10:57;17.16;70.37
70851;DHT22;58475;49.662;9.636;2022-07-29T05:13:23;17.32;66.55
70851;DHT22;58475;49.662;9.636;2022-07-29T05:15:49;17.69;64.94
70851;DHT22;58475;49.662;9.636;2022-07-29T05:18:14;17.93;66.08
70851;DHT22;58475;49.662;9.636;2022-07-29T05:20:40;18.46;64.70
70851;DHT22;58475;49.662;9.636;2022-07-29T05:23:05;18.63;64.36
70851;DHT22;58475;49.662;9.636;2022-07-29T05:25:30;18.94;62.32
70851;DHT22;58475;49.662;9.636;2022-07-29T05:27:56;19.16;62.13
70851;DHT22;58475;49.662;9.636;2022-07-29T05:30:22;19.12;60.84
70851;DHT22;58475;49.662;9.636;2022-07-29T05:32:48;18.78;59.81
70851;DHT22;58475;49.662;9.636;2022-07-29T05:35:14;18.91;60.65
70851;DHT22;58475;49.662;9.636;2022-07-29T05:37:40;18.89;61.03
70851;DHT22;58475;49.662;9.636;2022-07-29T05:40:06;19.32;61.13
70851;DHT22;58475;49.662;9.636;2022-07-29T05:42:32;19.64;58.49
70851;DHT22;58475;49.662;9.636;2022-07-29T05:44:57;20.04;57.25
70851;DHT22;58475;49.662;9.636;2022-07-29T05:47:23;20.22;55.59
70851;DHT22;58475;49.662;9.636;2022-07-29T05:49:49;20.80;55.25
70851;DHT22;58475;49.662;9.636;2022-07-29T05:52:15;21.40;55.25
70851;DHT22;58475;49.662;9.636;2022-07-29T05:54:41;21.07;52.53
70851;DHT22;58475;49.662;9.636;2022-07-29T05:57:06;21.04;52.97
70851;DHT22;58475;49.662;9.636;2022-07-29T05:59:35;21.54;50.30
70851;DHT22;58475;49.662;9.636;2022-07-29T06:02:01;21.91;47.99
70851;DHT22;58475;49.662;9.636;2022-07-29T06:04:26;21.95;49.37
70851;DHT22;58475;49.662;9.636;2022-07-29T06:06:52;22.39;49.12
70851;DHT22;58475;49.662;9.636;2022-07-29T06:09:17;22.40;49.54
70851;DHT22;58475;49.662;9.636;2022-07-29T06:11:43;21.96;51.35
70851;DHT22;58475;49.662;9.636;2022-07-29T06:14:08;21.75;51.41
70851;DHT22;58475;49.662;9.636;2022-07-29T06:16:34;21.66;50.60
70851;DHT22;58475;49.662;9.636;2022-07-29T06:18:59;21.81;51.09
70851;DHT22;58475;49.662;9.636;2022-07-29T06:21:24;21.65;49.82
70851;DHT22;58475;49.662;9.636;2022-07-29T06:23:50;21.48;51.24
70851;DHT22;58475;49.662;9.636;2022-07-29T06:26:15;21.68;51.69
70851;DHT22;58475;49.662;9.636;2022-07-29T06:28:41;22.54;47.71
70851;DHT22;58475;49.662;9.636;2022-07-29T06:31:06;22.67;48.72
70851;DHT22;58475;49.662;9.636;2022-07-29T06:33:32;23.08;44.90
70851;DHT22;58475;49.662;9.636;2022-07-29T06:35:58;23.65;45.57
70851;DHT22;58475;49.662;9.636;2022-07-29T06:38:23;24.07;44.23
70851;DHT22;58475;49.662;9.636;2022-07-29T06:40:49;24.18;44.15
70851;DHT22;58475;49.662;9.636;2022-07-29T06:43:38;25.05;44.55
70851;DHT22;58475;49.662;9.636;2022-07-29T06:46:05;25.38;42.30
70851;DHT22;58475;49.662;9.636;2022-07-29T06:48:32;24.71;42.39
70851;DHT22;58475;49.662;9.636;2022-07-29T06:50:58;24.25;43.75
70851;DHT22;58475;49.662;9.636;2022-07-29T06:53:24;24.71;43.28
70851;DHT22;58475;49.662;9.636;2022-07-29T06:55:49;24.86;42.19
70851;DHT22;58475;49.662;9.636;2022-07-29T06:58:15;25.12;41.95
70851;DHT22;58475;49.662;9.636;2022-07-29T07:00:48;24.37;43.25
70851;DHT22;58475;49.662;9.636;2022-07-29T07:03:15;24.38;43.25
70851;DHT22;58475;49.662;9.636;2022-07-29T07:05:40;24.17;43.53
70851;DHT22;58475;49.662;9.636;2022-07-29T07:08:06;24.04;45.01
70851;DHT22;58475;49.662;9.636;2022-07-29T07:10:32;23.90;46.11
70851;DHT22;58475;49.662;9.636;2022-07-29T07:12:57;23.62;45.24
70851;DHT22;58475;49.662;9.636;2022-07-29T07:15:23;23.71;47.33
70851;DHT22;58475;49.662;9.636;2022-07-29T07:17:49;24.13;45.06
70851;DHT22;58475;49.662;9.636;2022-07-29T07:20:16;24.68;45.02
70851;DHT22;58475;49.662;9.636;2022-07-29T07:22:42;24.92;43.30
70851;DHT22;58475;49.662;9.636;2022-07-29T07:25:07;25.00;42.56
70851;DHT22;58475;49.662;9.636;2022-07-29T07:27:34;26.06;43.44
70851;DHT22;58475;49.662;9.636;2022-07-29T07:30:01;26.66;39.90
70851;DHT22;58475;49.662;9.636;2022-07-29T07:32:26;26.63;39.46
70851;DHT22;58475;49.662;9.636;2022-07-29T07:34:52;26.61;39.74
70851;DHT22;58475;49.662;9.636;2022-07-29T07:37:17;26.53;41.44
70851;DHT22;58475;49.662;9.636;2022-07-29T07:39:45;25.96;43.22
70851;DHT22;58475;49.662;9.636;2022-07-29T07:42:11;25.34;43.04
70851;DHT22;58475;49.662;9.636;2022-07-29T07:44:38;26.45;41.69
70851;DHT22;58475;49.662;9.636;2022-07-29T07:47:04;27.49;40.53
70851;DHT22;58475;49.662;9.636;2022-07-29T07:49:29;26.91;39.51
70851;DHT22;58475;49.662;9.636;2022-07-29T07:51:55;26.94;39.85
70851;DHT22;58475;49.662;9.636;2022-07-29T07:54:20;26.39;41.58
70851;DHT22;58475;49.662;9.636;2022-07-29T07:56:46;26.21;41.59
70851;DHT22;58475;49.662;9.636;2022-07-29T07:59:14;26.77;40.79
70851;DHT22;58475;49.662;9.636;2022-07-29T08:01:39;26.67;42.69
70851;DHT22;58475;49.662;9.636;2022-07-29T08:04:04;26.24;41.68
70851;DHT22;58475;49.662;9.636;2022-07-29T08:06:30;26.32;42.23
70851;DHT22;58475;49.662;9.636;2022-07-29T08:08:55;26.16;43.43
70851;DHT22;58475;49.662;9.636;2022-07-29T08:11:21;26.14;44.10
70851;DHT22;58475;49.662;9.636;2022-07-29T08:13:46;26.14;45.85
70851;DHT22;58475;49.662;9.636;2022-07-29T08:16:12;25.84;45.54
70851;DHT22;58475;49.662;9.636;2022-07-29T08:18:40;25.89;43.49
70851;DHT22;58475;49.662;9.636;2022-07-29T08:21:05;25.73;43.91
70851;DHT22;58475;49.662;9.636;2022-07-29T08:23:31;25.51;44.10
70851;DHT22;58475;49.662;9.636;2022-07-29T08:26:06;25.50;44.90
70851;DHT22;58475;49.662;9.636;2022-07-29T08:28:39;25.88;43.36
70851;DHT22;58475;49.662;9.636;2022-07-29T08:31:06;25.95;43.94
70851;DHT22;58475;49.662;9.636;2022-07-29T08:33:32;26.06;44.41
70851;DHT22;58475;49.662;9.636;2022-07-29T08:35:57;25.99;44.31
70851;DHT22;58475;49.662;9.636;2022-07-29T08:38:23;25.91;44.52
70851;DHT22;58475;49.662;9.636;2022-07-29T08:40:48;25.56;45.82
70851;DHT22;58475;49.662;9.636;2022-07-29T08:43:14;25.23;46.08
70851;DHT22;58475;49.662;9.636;2022-07-29T08:45:47;25.13;47.03
70851;DHT22;58475;49.662;9.636;2022-07-29T08:48:15;24.79;50.95
70851;DHT22;58475;49.662;9.636;2022-07-29T08:50:42;24.68;49.69
70851;DHT22;58475;49.662;9.636;2022-07-29T08:53:11;23.73;68.72
70851;DHT22;58475;49.662;9.636;2022-07-29T08:55:42;22.53;66.49
70851;DHT22;58475;49.662;9.636;2022-07-29T08:58:09;21.51;74.96
70851;DHT22;58475;49.662;9.636;2022-07-29T09:00:37;20.86;78.82
70851;DHT22;58475;49.662;9.636;2022-07-29T09:03:04;20.87;81.63
70851;DHT22;58475;49.662;9.636;2022-07-29T09:05:29;20.57;80.88
70851;DHT22;58475;49.662;9.636;2022-07-29T09:07:56;20.72;82.08
70851;DHT22;58475;49.662;9.636;2022-07-29T09:10:22;21.27;88.43
70851;DHT22;58475;49.662;9.636;2022-07-29T09:12:48;21.57;89.08
70851;DHT22;58475;49.662;9.636;2022-07-29T09:15:14;21.65;86.08
70851;DHT22;58475;49.662;9.636;2022-07-29T09:17:47;21.71;83.93
70851;DHT22;58475;49.662;9.636;2022-07-29T09:20:15;21.45;82.50
70851;DHT22;58475;49.662;9.636;2022-07-29T09:22:40;21.68;80.96
70851;DHT22;58475;49.662;9.636;2022-07-29T09:25:06;21.42;80.64
70851;DHT22;58475;49.662;9.636;2022-07-29T09:27:32;21.59;82.92
70851;DHT22;58475;49.662;9.636;2022-07-29T09:30:07;21.64;82.70
70851;DHT22;58475;49.662;9.636;2022-07-29T09:32:55;22.40;79.82
70851;DHT22;58475;49.662;9.636;2022-07-29T09:35:22;23.53;78.13
70851;DHT22;58475;49.662;9.636;2022-07-29T09:37:49;24.25;73.92
70851;DHT22;58475;49.662;9.636;2022-07-29T09:40:17;24.92;73.13
70851;DHT22;58475;49.662;9.636;2022-07-29T09:42:42;25.54;69.69
70851;DHT22;58475;49.662;9.636;2022-07-29T09:45:08;26.14;70.13
70851;DHT22;58475;49.662;9.636;2022-07-29T09:48:13;25.57;69.54
70851;DHT22;58475;49.662;9.636;2022-07-29T09:50:40;25.77;70.28
70851;DHT22;58475;49.662;9.636;2022-07-29T09:53:06;24.92;71.14
70851;DHT22;58475;49.662;9.636;2022-07-29T09:55:31;24.57;71.86
70851;DHT22;58475;49.662;9.636;2022-07-29T09:58:19;25.06;69.34
70851;DHT22;58475;49.662;9.636;2022-07-29T10:00:46;25.66;71.63
70851;DHT22;58475;49.662;9.636;2022-07-29T10:03:13;25.84;69.09
70851;DHT22;58475;49.662;9.636;2022-07-29T10:05:39;26.25;70.92
70851;DHT22;58475;49.662;9.636;2022-07-29T10:08:05;26.79;66.05
70851;DHT22;58475;49.662;9.636;2022-07-29T10:10:38;27.08;65.75
70851;DHT22;58475;49.662;9.636;2022-07-29T10:13:06;26.88;59.79
70851;DHT22;58475;49.662;9.636;2022-07-29T10:15:34;26.25;63.26
70851;DHT22;58475;49.662;9.636;2022-07-29T10:18:04;26.35;63.03
70851;DHT22;58475;49.662;9.636;2022-07-29T10:20:31;27.08;60.39
70851;DHT22;58475;49.662;9.636;2022-07-29T10:22:56;27.66;60.96
70851;DHT22;58475;49.662;9.636;2022-07-29T10:25:22;27.63;54.61
70851;DHT22;58475;49.662;9.636;2022-07-29T10:27:49;28.76;55.69
70851;DHT22;58475;49.662;9.636;2022-07-29T10:30:17;28.88;52.71
70851;DHT22;58475;49.662;9.636;2022-07-29T10:32:59;28.85;49.78
70851;DHT22;58475;49.662;9.636;2022-07-29T10:38:42;29.59;49.60
70851;DHT22;58475;49.662;9.636;2022-07-29T10:41:24;30.12;48.48
70851;DHT22;58475;49.662;9.636;2022-07-29T10:46:23;31.03;45.64
70851;DHT22;58475;49.662;9.636;2022-07-29T10:49:15;30.04;46.11
70851;DHT22;58475;49.662;9.636;2022-07-29T10:54:15;29.74;48.12
70851;DHT22;58475;49.662;9.636;2022-07-29T10:56:41;29.30;48.04
70851;DHT22;58475;49.662;9.636;2022-07-29T11:01:50;30.15;46.86
70851;DHT22;58475;49.662;9.636;2022-07-29T11:07:11;30.32;46.06
70851;DHT22;58475;49.662;9.636;2022-07-29T11:09:38;30.53;44.31
70851;DHT22;58475;49.662;9.636;2022-07-29T11:12:49;31.28;45.50
70851;DHT22;58475;49.662;9.636;2022-07-29T11:14:58;31.27;40.66
70851;DHT22;58475;49.662;9.636;2022-07-29T11:17:25;30.59;43.74
70851;DHT22;58475;49.662;9.636;2022-07-29T11:19:50;30.05;43.10
70851;DHT22;58475;49.662;9.636;2022-07-29T11:22:33;30.91;45.39
70851;DHT22;58475;49.662;9.636;2022-07-29T11:25:16;31.42;42.32
70851;DHT22;58475;49.662;9.636;2022-07-29T11:27:42;31.18;43.16
70851;DHT22;58475;49.662;9.636;2022-07-29T11:30:08;31.59;42.88
70851;DHT22;58475;49.662;9.636;2022-07-29T11:32:42;31.95;40.70
70851;DHT22;58475;49.662;9.636;2022-07-29T11:35:20;32.13;40.05
70851;DHT22;58475;49.662;9.636;2022-07-29T11:43:58;31.57;42.31
70851;DHT22;58475;49.662;9.636;2022-07-29T11:49:08;31.16;40.10
70851;DHT22;58475;49.662;9.636;2022-07-29T11:51:36;31.23;39.46
70851;DHT22;58475;49.662;9.636;2022-07-29T11:54:02;31.17;39.83
70851;DHT22;58475;49.662;9.636;2022-07-29T11:56:31;30.70;39.14
70851;DHT22;58475;49.662;9.636;2022-07-29T11:59:07;31.69;37.89
70851;DHT22;58475;49.662;9.636;2022-07-29T12:01:34;31.81;37.95
70851;DHT22;58475;49.662;9.636;2022-07-29T12:04:07;31.69;37.48
70851;DHT22;58475;49.662;9.636;2022-07-29T12:06:35;31.06;40.61
70851;DHT22;58475;49.662;9.636;2022-07-29T12:09:07;30.58;40.74
70851;DHT22;58475;49.662;9.636;2022-07-29T12:11:33;30.02;42.18
70851;DHT22;58475;49.662;9.636;2022-07-29T12:13:58;29.67;42.31
70851;DHT22;58475;49.662;9.636;2022-07-29T12:16:35;29.49;42.29
70851;DHT22;58475;49.662;9.636;2022-07-29T12:19:02;29.02;43.98
70851;DHT22;58475;49.662;9.636;2022-07-29T12:21:47;28.95;43.60
70851;DHT22;58475;49.662;9.636;2022-07-29T12:24:13;28.83;45.36
70851;DHT22;58475;49.662;9.636;2022-07-29T12:26:53;28.71;46.09
70851;DHT22;58475;49.662;9.636;2022-07-29T12:29:19;28.40;44.13
70851;DHT22;58475;49.662;9.636;2022-07-29T12:31:45;28.03;48.48
70851;DHT22;58475;49.662;9.636;2022-07-29T12:34:13;27.56;47.16
70851;DHT22;58475;49.662;9.636;2022-07-29T12:36:40;27.65;48.48
70851;DHT22;58475;49.662;9.636;2022-07-29T12:39:05;24.86;60.84
70851;DHT22;58475;49.662;9.636;2022-07-29T12:41:31;22.90;68.35
70851;DHT22;58475;49.662;9.636;2022-07-29T12:43:57;22.29;72.63
70851;DHT22;58475;49.662;9.636;2022-07-29T12:46:22;21.68;75.24
70851;DHT22;58475;49.662;9.636;2022-07-29T12:48:51;21.10;78.95
70851;DHT22;58475;49.662;9.636;2022-07-29T12:54:13;20.20;80.04
70851;DHT22;58475;49.662;9.636;2022-07-29T12:56:40;19.27;84.85
70851;DHT22;58475;49.662;9.636;2022-07-29T12:59:16;17.64;95.10
70851;DHT22;58475;49.662;9.636;2022-07-29T13:01:43;17.52;92.34
70851;DHT22;58475;49.662;9.636;2022-07-29T13:04:08;17.71;88.29
70851;DHT22;58475;49.662;9.636;2022-07-29T13:38:35;19.71;90.02
70851;DHT22;58475;49.662;9.636;2022-07-29T13:41:00;20.21;88.85
70851;DHT22;58475;49.662;9.636;2022-07-29T13:43:26;20.24;88.08
70851;DHT22;58475;49.662;9.636;2022-07-29T13:45:51;20.31;90.82
70851;DHT22;58475;49.662;9.636;2022-07-29T13:48:17;20.05;87.41
70851;DHT22;58475;49.662;9.636;2022-07-29T13:50:42;20.17;87.61
70851;DHT22;58475;49.662;9.636;2022-07-29T13:53:08;20.05;87.82
70851;DHT22;58475;49.662;9.636;2022-07-29T13:55:33;20.00;89.79
70851;DHT22;58475;49.662;9.636;2022-07-29T13:57:59;20.24;91.85
70851;DHT22;58475;49.662;9.636;2022-07-29T14:00:25;20.20;88.72
70851;DHT22;58475;49.662;9.636;2022-07-29T14:02:51;20.10;87.44
70851;DHT22;58475;49.662;9.636;2022-07-29T14:05:17;19.88;89.16
70851;DHT22;58475;49.662;9.636;2022-07-29T14:07:42;19.85;90.65
70851;DHT22;58475;49.662;9.636;2022-07-29T14:10:08;20.07;90.17
70851;DHT22;58475;49.662;9.636;2022-07-29T14:12:34;19.91;89.45
70851;DHT22;58475;49.662;9.636;2022-07-29T14:14:59;19.90;90.03
70851;DHT22;58475;49.662;9.636;2022-07-29T14:17:25;19.70;90.71
70851;DHT22;58475;49.662;9.636;2022-07-29T14:19:50;19.91;90.35
70851;DHT22;58475;49.662;9.636;2022-07-29T14:22:15;19.80;88.88
70851;DHT22;58475;49.662;9.636;2022-07-29T14:24:41;19.85;87.92
70851;DHT22;58475;49.662;9.636;2022-07-29T14:27:07;19.62;88.90
70851;DHT22;58475;49.662;9.636;2022-07-29T14:29:33;19.93;89.78
70851;DHT22;58475;49.662;9.636;2022-07-29T14:31:58;20.07;82.73
70851;DHT22;58475;49.662;9.636;2022-07-29T14:34:24;20.15;82.48
70851;DHT22;58475;49.662;9.636;2022-07-29T14:36:49;20.24;84.96
70851;DHT22;58475;49.662;9.636;2022-07-29T14:39:15;20.05;88.74
70851;DHT22;58475;49.662;9.636;2022-07-29T14:41:41;20.08;83.72
70851;DHT22;58475;49.662;9.636;2022-07-29T14:44:07;20.13;83.47
70851;DHT22;58475;49.662;9.636;2022-07-29T14:46:32;20.13;81.95
70851;DHT22;58475;49.662;9.636;2022-07-29T14:48:57;20.10;84.21
70851;DHT22;58475;49.662;9.636;2022-07-29T14:51:23;20.01;84.51
70851;DHT22;58475;49.662;9.636;2022-07-29T14:53:48;20.04;83.97
70851;DHT22;58475;49.662;9.636;2022-07-29T14:56:13;19.85;85.30
70851;DHT22;58475;49.662;9.636;2022-07-29T14:58:39;19.87;84.69
70851;DHT22;58475;49.662;9.636;2022-07-29T15:01:04;19.90;86.19
70851;DHT22;58475;49.662;9.636;2022-07-29T15:03:30;19.81;86.27
70851;DHT22;58475;49.662;9.636;2022-07-29T15:05:55;19.71;86.05
70851;DHT22;58475;49.662;9.636;2022-07-29T15:08:20;19.87;86.26
70851;DHT22;58475;49.662;9.636;2022-07-29T15:10:46;19.84;85.22
70851;DHT22;58475;49.662;9.636;2022-07-29T15:13:12;19.94;84.21
70851;DHT22;58475;49.662;9.636;2022-07-29T15:15:37;20.08;84.73
70851;DHT22;58475;49.662;9.636;2022-07-29T15:18:03;19.94;87.81
70851;DHT22;58475;49.662;9.636;2022-07-29T15:20:28;19.80;88.55
70851;DHT22;58475;49.662;9.636;2022-07-29T15:22:55;19.93;88.44
70851;DHT22;58475;49.662;9.636;2022-07-29T15:25:21;20.18;89.03
70851;DHT22;58475;49.662;9.636;2022-07-29T15:27:47;20.25;88.90
70851;DHT22;58475;49.662;9.636;2022-07-29T15:30:12;20.21;88.22
70851;DHT22;58475;49.662;9.636;2022-07-29T15:32:40;20.04;89.03
70851;DHT22;58475;49.662;9.636;2022-07-29T15:35:05;19.94;89.14
70851;DHT22;58475;49.662;9.636;2022-07-29T15:37:31;19.95;88.84
70851;DHT22;58475;49.662;9.636;2022-07-29T15:39:58;20.11;88.98
70851;DHT22;58475;49.662;9.636;2022-07-29T15:42:24;20.24;91.03
70851;DHT22;58475;49.662;9.636;2022-07-29T15:44:49;20.20;87.43
70851;DHT22;58475;49.662;9.636;2022-07-29T15:47:15;20.36;87.24
70851;DHT22;58475;49.662;9.636;2022-07-29T15:49:40;20.43;87.77
70851;DHT22;58475;49.662;9.636;2022-07-29T15:52:08;20.45;87.28
70851;DHT22;58475;49.662;9.636;2022-07-29T15:54:37;20.45;87.18
70851;DHT22;58475;49.662;9.636;2022-07-29T15:57:03;20.41;87.64
70851;DHT22;58475;49.662;9.636;2022-07-29T15:59:29;20.21;87.40
70851;DHT22;58475;49.662;9.636;2022-07-29T16:01:54;20.21;87.00
70851;DHT22;58475;49.662;9.636;2022-07-29T16:04:20;20.24;86.92
70851;DHT22;58475;49.662;9.636;2022-07-29T16:06:47;20.10;85.37
70851;DHT22;58475;49.662;9.636;2022-07-29T16:09:13;19.85;86.15
70851;DHT22;58475;49.662;9.636;2022-07-29T16:11:39;19.88;85.38
70851;DHT22;58475;49.662;9.636;2022-07-29T16:14:05;19.75;85.46
70851;DHT22;58475;49.662;9.636;2022-07-29T16:16:30;19.71;86.47
70851;DHT22;58475;49.662;9.636;2022-07-29T16:18:56;19.40;87.10
70851;DHT22;58475;49.662;9.636;2022-07-29T16:21:21;19.49;87.19
70851;DHT22;58475;49.662;9.636;2022-07-29T16:23:48;19.53;88.64
70851;DHT22;58475;49.662;9.636;2022-07-29T16:26:14;19.43;87.83
70851;DHT22;58475;49.662;9.636;2022-07-29T16:28:39;19.60;88.39
70851;DHT22;58475;49.662;9.636;2022-07-29T16:31:04;19.57;88.54
70851;DHT22;58475;49.662;9.636;2022-07-29T16:33:30;19.59;88.04
70851;DHT22;58475;49.662;9.636;2022-07-29T16:35:56;19.70;87.50
70851;DHT22;58475;49.662;9.636;2022-07-29T16:38:21;19.67;86.41